Currently 75°F in Simi Valley, California, USA
75°F
75°F / 52°F
6 mph NE
0.00"
Thursday, January 23, 2020 2:23 PM PST

Simi Valley, California Weather Summary
Last 36 Hours

Temperature Winds Hourly Humidity Dewpoint
Time Report Norm Report Norm Max Gusts Precip. Rpt. Norm Rpt. Norm Pressure
1,2Thu 02:23 PM  74.6°F  67°F  6 mph NE  6 mph  14 mph  0.00"  32%  40%  41°F  41°F  30.06"
Thu 02:00 PM  74.4°F  67°F  8 mph NE  6 mph  17 mph  0.00"  32%  40%  41°F  41°F  30.07"
Thu 01:00 PM  74.0°F  67°F  7 mph SE  6 mph  15 mph  0.00"  34%  40%  43°F  41°F  30.10"
Thu 12:00 PM  72.3°F  66°F  9 mph E  6 mph  19 mph  0.00"  37%  42%  44°F  41°F  30.13"
Thu 11:00 AM  70.2°F  64°F  10 mph NE  6 mph  19 mph  0.00"  41%  45%  44°F  41°F  30.17"
Thu 10:00 AM  67.4°F  61°F  1 mph E  6 mph  16 mph  0.00"  46%  49%  45°F  41°F  30.18"
Thu 09:00 AM  63.8°F  57°F  5 mph E  5 mph  14 mph  0.00"  49%  54%  44°F  40°F  30.19"
Thu 08:00 AM  60.4°F  54°F  6 mph NE  5 mph  15 mph  0.00"  52%  57%  42°F  38°F  30.19"
Thu 07:00 AM  59.5°F  53°F  3 mph E  4 mph  17 mph  0.00"  52%  57%  41°F  37°F  30.18"
Thu 06:00 AM  59.8°F  53°F  8 mph NE  4 mph  16 mph  0.00"  53%  57%  42°F  37°F  30.16"
Thu 05:00 AM  59.4°F  53°F  9 mph NE  4 mph  17 mph  0.00"  55%  57%  42°F  37°F  30.16"
Thu 04:00 AM  58.5°F  53°F  6 mph NE  4 mph  13 mph  0.00"  58%  56%  43°F  37°F  30.16"
Thu 03:00 AM  54.8°F  54°F  3 mph E  4 mph  9 mph  0.00"  66%  56%  43°F  38°F  30.16"
Thu 02:00 AM  52.8°F  54°F  calm  4 mph  9 mph  0.00"  70%  56%  43°F  38°F  30.17"
3Thu 01:51 AM  52.2°F  54°F  2 mph S  4 mph  5 mph  ----  70%  56%  42°F  38°F  30.17"
Thu 01:00 AM  53.8°F  54°F  2 mph NE  4 mph  12 mph  0.00"  67%  56%  43°F  38°F  30.17"
Thu 12:00 AM  56.9°F  55°F  1 mph SE  4 mph  13 mph  0.00"  62%  56%  43°F  39°F  30.18"
Wed 11:00 PM  58.8°F  55°F  1 mph E  4 mph  17 mph  0.00"  61%  56%  45°F  39°F  30.18"
Wed 10:00 PM  55.7°F  55°F  2 mph SE  4 mph  9 mph  0.00"  69%  56%  45°F  39°F  30.16"
Wed 09:00 PM  56.1°F  56°F  2 mph W  4 mph  6 mph  0.00"  71%  55%  46°F  39°F  30.16"
Wed 08:00 PM  58.1°F  57°F  2 mph NW  4 mph  18 mph  0.00"  67%  54%  47°F  40°F  30.15"
Wed 07:00 PM  57.1°F  58°F  5 mph SE  3 mph  7 mph  0.00"  70%  53%  47°F  40°F  30.15"
Wed 06:00 PM  59.5°F  60°F  4 mph SW  3 mph  7 mph  0.00"  70%  51%  49°F  41°F  30.14"
Wed 05:00 PM  62.0°F  63°F  2 mph W  4 mph  10 mph  0.00"  67%  46%  51°F  41°F  30.13"
Wed 04:00 PM  64.6°F  65°F  4 mph W  5 mph  8 mph  0.00"  61%  43%  50°F  41°F  30.13"
Wed 03:00 PM  64.2°F  67°F  5 mph NW  6 mph  12 mph  0.00"  60%  41%  50°F  41°F  30.13"
Wed 02:00 PM  63.3°F  67°F  7 mph W  6 mph  14 mph  0.00"  62%  41%  49°F  41°F  30.14"
Wed 01:00 PM  63.5°F  66°F  6 mph W  6 mph  10 mph  0.00"  59%  41%  48°F  41°F  30.15"
Wed 12:00 PM  61.3°F  66°F  calm  6 mph  8 mph  0.00"  67%  42%  50°F  41°F  30.17"
Wed 11:00 AM  59.0°F  64°F  4 mph W  6 mph  7 mph  0.00"  73%  45%  50°F  41°F  30.21"
Wed 10:00 AM  55.4°F  61°F  calm  5 mph  4 mph  0.00"  83%  49%  50°F  41°F  30.23"
Wed 09:00 AM  50.2°F  58°F  calm  5 mph  4 mph  0.00"  90%  54%  47°F  41°F  30.22"
Wed 08:00 AM  45.2°F  54°F  2 mph W  4 mph  5 mph  0.00"  91%  57%  42°F  39°F  30.23"
Wed 07:00 AM  44.2°F  53°F  calm  4 mph  3 mph  0.00"  90%  58%  41°F  38°F  30.21"
Wed 06:00 AM  44.0°F  53°F  calm  4 mph  none  0.00"  90%  57%  41°F  38°F  30.20"
Wed 05:00 AM  44.5°F  53°F  calm  4 mph  3 mph  0.00"  89%  57%  41°F  38°F  30.20"
Wed 04:00 AM  44.7°F  54°F  1 mph E  4 mph  5 mph  0.00"  89%  57%  42°F  38°F  30.21"
Wed 03:00 AM  45.0°F  54°F  calm  3 mph  5 mph  0.00"  89%  56%  42°F  38°F  30.21"

  1. Current weather data. No green row appears if the current weather data is also the high or low for the current day.
  2. High temperature for the current day.
  3. Low temperature for the current day.

The Simi Valley, California weather pages are a service of WeatherCurrents.
Copyright ©2020  WeatherCurrents. All rights reserved. - Submit questions and comments - Privacy Policy

This page automatically refreshes every 10 minutes.